createdAt,value
2018-07-07T00:01:06.024Z,16.60
2018-07-07T00:03:35.012Z,16.50
2018-07-07T00:06:03.809Z,16.50
2018-07-07T00:08:33.313Z,16.50
2018-07-07T00:11:02.318Z,16.40
2018-07-07T00:13:31.609Z,16.40
2018-07-07T00:16:00.496Z,16.40
2018-07-07T00:18:29.786Z,16.40
2018-07-07T00:20:58.763Z,16.30
2018-07-07T00:23:27.905Z,16.30
2018-07-07T00:25:56.759Z,16.30
2018-07-07T00:28:25.652Z,16.20
2018-07-07T00:30:54.472Z,16.20
2018-07-07T00:33:23.201Z,16.20
2018-07-07T00:35:52.425Z,16.20
2018-07-07T00:38:21.359Z,16.20
2018-07-07T00:40:50.191Z,16.20
2018-07-07T00:43:19.209Z,16.20
2018-07-07T00:45:48.050Z,16.30
2018-07-07T00:48:16.797Z,16.20
2018-07-07T00:50:45.655Z,16.20
2018-07-07T00:53:14.575Z,16.10
2018-07-07T00:55:43.368Z,16.10
2018-07-07T00:58:12.254Z,16.10
2018-07-07T01:00:51.603Z,16.00
2018-07-07T01:03:21.155Z,16.00
2018-07-07T01:05:50.849Z,16.00
2018-07-07T01:08:19.832Z,15.90
2018-07-07T01:10:48.837Z,15.90
2018-07-07T01:13:17.855Z,15.90
2018-07-07T01:15:46.913Z,15.90
2018-07-07T01:18:15.815Z,15.80
2018-07-07T01:20:44.741Z,15.80
2018-07-07T01:23:13.529Z,15.90
2018-07-07T01:25:42.529Z,15.80
2018-07-07T01:28:11.296Z,15.90
2018-07-07T01:30:40.087Z,15.90
2018-07-07T01:33:09.120Z,15.80
2018-07-07T01:35:37.989Z,15.80
2018-07-07T01:38:06.910Z,15.80
2018-07-07T01:40:35.706Z,15.70
2018-07-07T01:43:04.743Z,15.70
2018-07-07T01:45:33.514Z,15.70
2018-07-07T01:48:02.792Z,15.60
2018-07-07T01:50:31.710Z,15.60
2018-07-07T01:53:00.690Z,15.60
2018-07-07T01:55:29.494Z,15.60
2018-07-07T01:57:58.364Z,15.50
2018-07-07T02:00:27.448Z,15.50
2018-07-07T02:02:56.323Z,15.50
2018-07-07T02:05:25.111Z,15.50
2018-07-07T02:07:53.932Z,15.40
2018-07-07T02:10:22.765Z,15.40
2018-07-07T02:12:51.674Z,15.40
2018-07-07T02:15:20.970Z,15.30
2018-07-07T02:17:50.100Z,15.30
2018-07-07T02:20:19.186Z,15.20
2018-07-07T02:22:48.036Z,15.20
2018-07-07T02:25:16.852Z,15.20
2018-07-07T02:27:46.050Z,15.20
2018-07-07T02:30:14.949Z,15.10
2018-07-07T02:32:43.730Z,15.10
2018-07-07T02:35:12.621Z,15.10
2018-07-07T02:37:41.468Z,15.10
2018-07-07T02:42:38.683Z,15.00
2018-07-07T02:45:07.576Z,15.00
2018-07-07T02:47:36.452Z,14.90
2018-07-07T02:50:05.546Z,14.90
2018-07-07T02:52:34.407Z,14.90
2018-07-07T02:55:03.349Z,14.80
2018-07-07T02:57:32.333Z,14.80
2018-07-07T03:00:01.421Z,14.80
2018-07-07T03:02:32.335Z,14.80
2018-07-07T03:05:01.180Z,14.70
2018-07-07T03:07:30.146Z,14.70
2018-07-07T03:09:58.931Z,14.70
2018-07-07T03:12:27.705Z,14.60
2018-07-07T03:14:56.615Z,14.60
2018-07-07T03:17:25.391Z,14.60
2018-07-07T03:19:54.224Z,14.60
2018-07-07T03:22:23.221Z,14.50
2018-07-07T03:24:52.064Z,14.50
2018-07-07T03:27:21.526Z,14.50
2018-07-07T03:29:50.304Z,14.40
2018-07-07T03:32:19.197Z,14.50
2018-07-07T03:34:48.067Z,14.40
2018-07-07T03:37:16.853Z,14.40
2018-07-07T03:39:45.757Z,14.40
2018-07-07T03:42:14.614Z,14.50
2018-07-07T03:44:43.462Z,14.50
2018-07-07T03:47:12.325Z,14.50
2018-07-07T03:49:41.029Z,14.50
2018-07-07T03:52:09.855Z,14.60
2018-07-07T03:54:38.832Z,14.60
2018-07-07T03:57:07.607Z,14.70
2018-07-07T03:59:36.544Z,14.70
2018-07-07T04:02:07.999Z,14.80
2018-07-07T04:04:38.879Z,14.80
2018-07-07T04:07:08.557Z,14.90
2018-07-07T04:09:37.371Z,14.90
2018-07-07T04:12:06.254Z,14.90
2018-07-07T04:14:35.216Z,15.00
2018-07-07T04:17:04.089Z,15.10
2018-07-07T04:19:32.833Z,15.20
2018-07-07T04:22:02.932Z,15.30
2018-07-07T04:24:31.905Z,15.40
2018-07-07T04:27:00.715Z,15.50
2018-07-07T04:29:29.726Z,15.60
2018-07-07T04:31:58.543Z,15.60
2018-07-07T04:34:27.336Z,15.70
2018-07-07T04:36:56.427Z,15.80
2018-07-07T04:39:25.291Z,15.80
2018-07-07T04:41:54.273Z,15.90
2018-07-07T04:44:23.165Z,15.90
2018-07-07T04:46:52.342Z,16.00
2018-07-07T04:49:21.151Z,16.30
2018-07-07T04:51:50.185Z,17.00
2018-07-07T04:54:19.325Z,17.80
2018-07-07T04:56:48.177Z,18.60
2018-07-07T04:59:17.011Z,19.80
2018-07-07T05:01:45.807Z,20.90
2018-07-07T05:04:14.743Z,21.60
2018-07-07T05:06:43.774Z,21.80
2018-07-07T05:09:12.689Z,22.10
2018-07-07T05:11:41.517Z,22.80
2018-07-07T05:14:10.309Z,23.40
2018-07-07T05:16:45.493Z,24.10
2018-07-07T05:19:14.367Z,24.80
2018-07-07T05:21:43.313Z,25.40
2018-07-07T05:24:12.179Z,25.90
2018-07-07T05:26:41.117Z,26.50
2018-07-07T05:29:10.076Z,27.10
2018-07-07T05:31:38.900Z,27.70
2018-07-07T05:34:07.743Z,28.40
2018-07-07T05:36:36.761Z,29.10
2018-07-07T05:41:38.319Z,29.50
2018-07-07T05:44:07.220Z,29.70
2018-07-07T05:46:36.109Z,30.00
2018-07-07T05:51:33.253Z,30.20
2018-07-07T05:54:02.255Z,30.50
2018-07-07T05:56:31.388Z,30.70
2018-07-07T05:59:00.310Z,31.10
2018-07-07T06:01:29.125Z,31.30
2018-07-07T06:03:57.894Z,31.30
2018-07-07T06:06:26.783Z,31.40
2018-07-07T06:08:55.644Z,31.10
2018-07-07T06:11:24.504Z,30.80
2018-07-07T06:13:53.405Z,30.50
2018-07-07T06:16:22.373Z,30.50
2018-07-07T06:18:51.106Z,31.20
2018-07-07T06:21:20.036Z,32.20
2018-07-07T06:23:48.928Z,32.10
2018-07-07T06:26:17.737Z,31.00
2018-07-07T06:28:46.689Z,29.80
2018-07-07T06:31:15.513Z,29.80
2018-07-07T06:33:44.553Z,30.50
2018-07-07T06:36:13.912Z,30.40
2018-07-07T06:38:43.046Z,30.60
2018-07-07T06:41:11.994Z,31.10
2018-07-07T06:43:40.919Z,31.70
2018-07-07T06:46:09.829Z,31.60
2018-07-07T06:48:38.949Z,31.60
2018-07-07T06:51:07.804Z,31.50
2018-07-07T06:53:43.480Z,31.30
2018-07-07T06:56:12.326Z,31.50
2018-07-07T06:58:41.331Z,30.90
2018-07-07T07:01:10.224Z,30.20
2018-07-07T07:03:39.140Z,29.90
2018-07-07T07:06:08.087Z,29.30
2018-07-07T07:08:36.861Z,28.40
2018-07-07T07:11:05.822Z,27.40
2018-07-07T07:13:34.610Z,27.10
2018-07-07T07:16:03.418Z,26.30
2018-07-07T07:18:32.521Z,25.50
2018-07-07T07:21:01.358Z,25.10
2018-07-07T07:23:30.332Z,24.40
2018-07-07T07:25:59.214Z,23.90
2018-07-07T07:28:27.976Z,23.40
2018-07-07T07:30:56.837Z,23.20
2018-07-07T07:33:25.690Z,23.50
2018-07-07T07:36:06.884Z,23.50
2018-07-07T07:38:41.906Z,23.20
2018-07-07T07:43:49.012Z,23.10
2018-07-07T07:46:51.763Z,22.80
2018-07-07T07:49:21.672Z,22.80
2018-07-07T07:51:50.440Z,22.60
2018-07-07T07:54:19.309Z,22.60
2018-07-07T07:56:48.128Z,22.90
2018-07-07T07:59:17.173Z,23.00
2018-07-07T08:01:46.064Z,22.80
2018-07-07T08:04:14.902Z,22.90
2018-07-07T08:06:43.812Z,22.80
2018-07-07T08:09:35.034Z,22.80
2018-07-07T08:12:04.031Z,22.60
2018-07-07T08:14:33.037Z,22.70
2018-07-07T08:17:01.877Z,22.70
2018-07-07T08:19:30.805Z,22.70
2018-07-07T08:22:03.563Z,22.50
2018-07-07T08:24:32.327Z,22.40
2018-07-07T08:27:01.164Z,22.30
2018-07-07T08:29:29.887Z,22.20
2018-07-07T08:31:58.858Z,22.40
2018-07-07T08:34:52.334Z,22.70
2018-07-07T08:37:21.360Z,22.90
2018-07-07T08:39:50.127Z,23.10
2018-07-07T08:42:18.972Z,23.20
2018-07-07T08:44:47.784Z,23.50
2018-07-07T08:47:16.606Z,23.60
2018-07-07T08:49:45.390Z,23.60
2018-07-07T08:52:14.316Z,23.60
2018-07-07T08:54:43.426Z,23.70
2018-07-07T08:57:12.348Z,23.60
2018-07-07T08:59:41.120Z,23.60
2018-07-07T09:02:09.990Z,23.70
2018-07-07T09:04:38.766Z,23.80
2018-07-07T09:07:07.692Z,23.70
2018-07-07T09:09:36.812Z,23.60
2018-07-07T09:12:06.038Z,23.10
2018-07-07T09:14:35.085Z,23.10
2018-07-07T09:17:04.024Z,23.30
2018-07-07T09:19:32.901Z,23.50
2018-07-07T09:22:01.918Z,23.80
2018-07-07T09:27:24.581Z,23.90
2018-07-07T09:29:53.636Z,23.70
2018-07-07T09:32:22.870Z,23.40
2018-07-07T09:34:51.918Z,23.20
2018-07-07T09:37:20.841Z,23.50
2018-07-07T09:39:49.663Z,23.60
2018-07-07T09:42:18.632Z,23.80
2018-07-07T09:44:47.546Z,23.70
2018-07-07T09:47:16.779Z,23.70
2018-07-07T09:49:45.619Z,23.90
2018-07-07T09:52:14.432Z,24.10
2018-07-07T09:54:43.476Z,24.20
2018-07-07T09:57:26.561Z,24.10
2018-07-07T09:59:55.433Z,24.10
2018-07-07T10:02:24.647Z,24.40
2018-07-07T10:04:53.565Z,24.70
2018-07-07T10:07:23.581Z,24.70
2018-07-07T10:09:52.351Z,24.40
2018-07-07T10:12:21.231Z,23.90
2018-07-07T10:14:50.036Z,24.10
2018-07-07T10:17:19.049Z,24.10
2018-07-07T10:19:47.865Z,23.70
2018-07-07T10:22:17.828Z,23.70
2018-07-07T10:24:46.787Z,23.50
2018-07-07T10:27:15.627Z,23.40
2018-07-07T10:32:12.819Z,23.50
2018-07-07T10:34:41.779Z,23.60
2018-07-07T10:37:10.838Z,23.90
2018-07-07T10:39:45.721Z,24.00
2018-07-07T10:44:48.946Z,24.20
2018-07-07T10:47:17.945Z,24.30
2018-07-07T10:49:49.960Z,24.30
2018-07-07T10:52:22.146Z,24.10
2018-07-07T10:54:51.355Z,24.40
2018-07-07T10:57:24.578Z,24.40
2018-07-07T10:59:53.624Z,24.40
2018-07-07T11:02:22.786Z,24.40
2018-07-07T11:04:51.678Z,24.60
2018-07-07T11:07:20.564Z,24.60
2018-07-07T11:09:59.294Z,24.80
2018-07-07T11:12:28.101Z,24.70
2018-07-07T11:14:57.020Z,24.60
2018-07-07T11:17:25.916Z,24.70
2018-07-07T11:20:04.406Z,24.90
2018-07-07T11:22:33.361Z,24.90
2018-07-07T11:25:02.387Z,24.70
2018-07-07T11:27:31.773Z,24.60
2018-07-07T11:30:00.747Z,24.70
2018-07-07T11:32:29.747Z,24.70
2018-07-07T11:34:59.051Z,24.80
2018-07-07T11:37:28.071Z,25.80
2018-07-07T11:39:56.915Z,27.30
2018-07-07T11:42:27.887Z,28.50
2018-07-07T11:44:56.803Z,29.10
2018-07-07T11:47:25.849Z,29.60
2018-07-07T11:53:04.230Z,30.30
2018-07-07T11:55:33.159Z,30.70
2018-07-07T11:58:02.169Z,31.00
2018-07-07T12:00:31.151Z,31.60
2018-07-07T12:03:00.559Z,32.30
2018-07-07T12:05:29.657Z,32.70
2018-07-07T12:08:13.315Z,33.20
2018-07-07T12:12:55.989Z,32.50
2018-07-07T12:15:25.084Z,32.80
2018-07-07T12:20:22.526Z,32.50
2018-07-07T12:22:51.455Z,32.10
2018-07-07T12:25:20.294Z,32.10
2018-07-07T12:27:49.270Z,32.50
2018-07-07T12:30:18.351Z,33.10
2018-07-07T12:32:47.112Z,33.20
2018-07-07T12:35:16.169Z,32.80
2018-07-07T12:37:45.621Z,32.00
2018-07-07T12:40:14.657Z,31.90
2018-07-07T12:42:43.641Z,31.90
2018-07-07T12:45:12.545Z,32.20
2018-07-07T12:47:41.591Z,32.90
2018-07-07T12:55:07.461Z,32.50
2018-07-07T12:57:36.873Z,31.90
2018-07-07T13:00:06.145Z,31.30
2018-07-07T13:02:35.277Z,30.20
2018-07-07T13:05:04.245Z,29.20
2018-07-07T13:07:33.581Z,29.90
2018-07-07T13:10:02.459Z,30.70
2018-07-07T13:12:31.549Z,31.20
2018-07-07T13:15:00.632Z,31.80
2018-07-07T13:17:29.427Z,31.50
2018-07-07T13:19:58.227Z,30.80
2018-07-07T13:22:27.195Z,30.80
2018-07-07T13:24:56.221Z,30.90
2018-07-07T13:27:25.152Z,31.50
2018-07-07T13:29:53.934Z,31.90
2018-07-07T13:32:22.971Z,31.80
2018-07-07T13:34:51.683Z,31.20
2018-07-07T13:37:20.668Z,30.20
2018-07-07T13:39:49.526Z,30.10
2018-07-07T13:42:18.428Z,30.20
2018-07-07T13:44:47.285Z,29.60
2018-07-07T13:47:16.066Z,29.40
2018-07-07T13:49:45.117Z,29.50
2018-07-07T13:52:14.221Z,30.20
2018-07-07T13:54:43.296Z,30.00
2018-07-07T13:57:12.191Z,29.50
2018-07-07T13:59:41.130Z,29.20
2018-07-07T14:02:10.065Z,29.60
2018-07-07T14:04:39.419Z,29.80
2018-07-07T14:07:08.573Z,30.30
2018-07-07T14:09:37.473Z,30.50
2018-07-07T14:12:06.335Z,30.70
2018-07-07T14:14:35.317Z,30.40
2018-07-07T14:19:33.629Z,30.10
2018-07-07T14:22:02.473Z,30.40
2018-07-07T14:24:32.041Z,30.60
2018-07-07T14:27:00.891Z,30.60
2018-07-07T14:29:29.705Z,31.00
2018-07-07T14:31:58.573Z,30.70
2018-07-07T14:34:27.441Z,30.70
2018-07-07T14:36:56.429Z,30.90
2018-07-07T14:39:28.971Z,31.10
2018-07-07T14:42:08.231Z,31.30
2018-07-07T14:44:36.993Z,31.30
2018-07-07T14:47:05.943Z,30.90
2018-07-07T14:49:34.784Z,31.10
2018-07-07T14:52:03.739Z,31.20
2018-07-07T14:54:32.523Z,31.00
2018-07-07T14:57:01.565Z,31.10
2018-07-07T14:59:30.405Z,31.10
2018-07-07T15:01:59.231Z,30.80
2018-07-07T15:04:28.105Z,30.80
2018-07-07T15:06:56.972Z,30.70
2018-07-07T15:09:25.798Z,30.00
2018-07-07T15:11:58.809Z,29.30
2018-07-07T15:14:27.689Z,28.40
2018-07-07T15:16:56.777Z,27.80
2018-07-07T15:19:25.505Z,27.50
2018-07-07T15:21:54.417Z,27.30
2018-07-07T15:24:23.293Z,27.40
2018-07-07T15:26:52.201Z,27.40
2018-07-07T15:29:21.303Z,27.40
2018-07-07T15:31:50.078Z,27.80
2018-07-07T15:34:18.916Z,27.90
2018-07-07T15:36:48.187Z,28.10
2018-07-07T15:39:17.063Z,28.50
2018-07-07T15:44:14.983Z,28.80
2018-07-07T15:46:43.849Z,28.80
2018-07-07T15:49:12.760Z,28.50
2018-07-07T15:51:41.994Z,28.40
2018-07-07T15:54:10.829Z,28.40
2018-07-07T15:56:39.655Z,28.50
2018-07-07T15:59:08.597Z,28.30
2018-07-07T16:01:37.425Z,28.20
2018-07-07T16:04:06.781Z,28.10
2018-07-07T16:09:04.851Z,27.90
2018-07-07T16:11:33.621Z,27.80
2018-07-07T16:14:02.936Z,27.70
2018-07-07T16:16:34.688Z,27.50
2018-07-07T16:19:03.669Z,27.50
2018-07-07T16:21:33.547Z,27.50
2018-07-07T16:24:02.421Z,27.40
2018-07-07T16:26:31.491Z,27.30
2018-07-07T16:29:00.333Z,27.10
2018-07-07T16:31:29.243Z,26.70
2018-07-07T16:33:58.047Z,26.60
2018-07-07T16:36:26.879Z,26.60
2018-07-07T16:38:55.662Z,26.70
2018-07-07T16:41:24.549Z,26.60
2018-07-07T16:43:53.636Z,26.40
2018-07-07T16:46:23.008Z,26.30
2018-07-07T16:48:52.028Z,26.30
2018-07-07T16:51:21.681Z,26.30
2018-07-07T16:53:50.684Z,26.30
2018-07-07T16:56:20.507Z,26.20
2018-07-07T16:58:49.855Z,26.10
2018-07-07T17:01:18.704Z,26.00
2018-07-07T17:03:47.776Z,25.90
2018-07-07T17:06:17.559Z,25.90
2018-07-07T17:08:46.476Z,25.90
2018-07-07T17:11:15.458Z,25.90
2018-07-07T17:13:44.446Z,25.80
2018-07-07T17:16:13.460Z,25.70
2018-07-07T17:18:42.295Z,25.50
2018-07-07T17:21:11.228Z,25.40
2018-07-07T17:23:40.129Z,25.40
2018-07-07T17:26:09.487Z,25.40
2018-07-07T17:28:38.830Z,25.40
2018-07-07T17:31:07.793Z,25.40
2018-07-07T17:33:36.706Z,25.40
2018-07-07T17:36:05.962Z,25.50
2018-07-07T17:38:35.203Z,25.50
2018-07-07T17:41:04.422Z,25.50
2018-07-07T17:43:33.323Z,25.40
2018-07-07T17:46:02.930Z,25.40
2018-07-07T17:48:31.851Z,25.30
2018-07-07T17:51:00.814Z,25.30
2018-07-07T17:53:29.787Z,25.20
2018-07-07T17:55:59.147Z,25.10
2018-07-07T17:58:28.106Z,25.10
2018-07-07T18:00:56.958Z,25.00
2018-07-07T18:03:25.940Z,25.00
2018-07-07T18:05:54.904Z,25.10
2018-07-07T18:08:23.803Z,25.00
2018-07-07T18:10:52.652Z,25.00
2018-07-07T18:13:21.669Z,25.00
2018-07-07T18:15:50.576Z,25.00
2018-07-07T18:18:19.370Z,25.00
2018-07-07T18:20:48.550Z,25.00
2018-07-07T18:23:17.491Z,25.00
2018-07-07T18:25:46.318Z,25.00
2018-07-07T18:28:15.430Z,25.00
2018-07-07T18:30:44.286Z,24.90
2018-07-07T18:33:13.092Z,24.80
2018-07-07T18:35:41.978Z,24.80
2018-07-07T18:38:10.775Z,24.70
2018-07-07T18:40:39.751Z,24.70
2018-07-07T18:43:08.615Z,24.60
2018-07-07T18:45:37.346Z,24.50
2018-07-07T18:48:06.366Z,24.50
2018-07-07T18:50:35.204Z,24.40
2018-07-07T18:53:04.328Z,24.30
2018-07-07T18:55:33.320Z,24.20
2018-07-07T18:58:02.143Z,24.10
2018-07-07T19:02:59.416Z,24.00
2018-07-07T19:05:28.237Z,23.90
2018-07-07T19:07:57.086Z,23.80
2018-07-07T19:10:26.042Z,23.70
2018-07-07T19:12:54.853Z,23.60
2018-07-07T19:15:23.693Z,23.50
2018-07-07T19:17:53.018Z,23.40
2018-07-07T19:20:27.031Z,23.30
2018-07-07T19:23:01.095Z,23.30
2018-07-07T19:25:35.117Z,23.20
2018-07-07T19:28:03.915Z,23.10
2018-07-07T19:30:32.719Z,23.00
2018-07-07T19:33:06.877Z,22.90
2018-07-07T19:35:41.035Z,22.80
2018-07-07T19:38:09.892Z,22.80
2018-07-07T19:40:38.722Z,22.70
2018-07-07T19:43:07.533Z,22.60
2018-07-07T19:45:37.097Z,22.60
2018-07-07T19:48:06.345Z,22.50
2018-07-07T19:50:35.195Z,22.40
2018-07-07T19:53:04.040Z,22.40
2018-07-07T19:55:33.006Z,22.30
2018-07-07T19:58:02.016Z,22.20
2018-07-07T20:00:31.067Z,22.20
2018-07-07T20:02:59.998Z,22.10
2018-07-07T20:05:28.917Z,22.00
2018-07-07T20:07:57.849Z,22.00
2018-07-07T20:10:26.714Z,22.00
2018-07-07T20:12:55.713Z,21.90
2018-07-07T20:15:35.730Z,21.80
2018-07-07T20:18:05.771Z,21.70
2018-07-07T20:20:40.048Z,21.60
2018-07-07T20:23:11.283Z,21.60
2018-07-07T20:25:40.643Z,21.50
2018-07-07T20:28:14.916Z,21.40
2018-07-07T20:30:44.050Z,21.30
2018-07-07T20:33:12.947Z,21.10
2018-07-07T20:35:41.779Z,21.00
2018-07-07T20:38:10.672Z,20.80
2018-07-07T20:40:39.763Z,20.80
2018-07-07T20:43:08.865Z,20.70
2018-07-07T20:45:37.683Z,20.60
2018-07-07T20:48:06.806Z,20.50
2018-07-07T20:50:35.904Z,20.40
2018-07-07T20:53:04.791Z,20.40
2018-07-07T20:55:33.632Z,20.40
2018-07-07T20:58:02.689Z,20.30
2018-07-07T21:00:31.693Z,20.20
2018-07-07T21:03:00.650Z,20.20
2018-07-07T21:05:29.646Z,20.20
2018-07-07T21:07:58.609Z,20.10
2018-07-07T21:10:27.540Z,20.00
2018-07-07T21:12:56.438Z,20.00
2018-07-07T21:15:25.546Z,19.90
2018-07-07T21:17:54.366Z,19.70
2018-07-07T21:20:23.430Z,19.60
2018-07-07T21:22:52.410Z,19.60
2018-07-07T21:25:21.288Z,19.50
2018-07-07T21:27:50.329Z,19.50
2018-07-07T21:30:19.211Z,19.50
2018-07-07T21:32:48.041Z,19.40
2018-07-07T21:35:17.058Z,19.40
2018-07-07T21:37:45.920Z,19.40
2018-07-07T21:40:14.886Z,19.30
2018-07-07T21:42:43.784Z,19.30
2018-07-07T21:45:12.826Z,19.30
2018-07-07T21:47:41.712Z,19.20
2018-07-07T21:50:10.634Z,19.20
2018-07-07T21:52:39.750Z,19.10
2018-07-07T21:55:08.660Z,19.10
2018-07-07T21:57:42.895Z,19.00
2018-07-07T22:00:15.937Z,18.90
2018-07-07T22:02:50.360Z,18.80
2018-07-07T22:05:24.604Z,18.80
2018-07-07T22:07:53.624Z,18.70
2018-07-07T22:10:22.502Z,18.70
2018-07-07T22:12:51.460Z,18.60
2018-07-07T22:15:20.276Z,18.60
2018-07-07T22:17:49.182Z,18.50
2018-07-07T22:20:37.043Z,18.50
2018-07-07T22:23:06.448Z,18.40
2018-07-07T22:25:35.225Z,18.30
2018-07-07T22:28:04.148Z,18.30
2018-07-07T22:30:33.199Z,18.20
2018-07-07T22:33:07.301Z,18.20
2018-07-07T22:35:41.316Z,18.20
2018-07-07T22:38:15.524Z,18.10
2018-07-07T22:40:44.338Z,18.10
2018-07-07T22:43:13.272Z,18.00
2018-07-07T22:45:42.669Z,18.00
2018-07-07T22:48:11.599Z,18.00
2018-07-07T22:50:40.544Z,17.90
2018-07-07T22:53:09.452Z,17.90
2018-07-07T22:55:38.235Z,17.80
2018-07-07T22:58:08.096Z,17.80
2018-07-07T23:00:37.362Z,17.80
2018-07-07T23:03:06.226Z,17.80
2018-07-07T23:05:35.173Z,17.70
2018-07-07T23:08:04.060Z,17.70
2018-07-07T23:10:33.016Z,17.60
2018-07-07T23:13:02.994Z,17.60
2018-07-07T23:15:32.251Z,17.50
2018-07-07T23:18:01.889Z,17.50
2018-07-07T23:20:31.212Z,17.50
2018-07-07T23:23:00.189Z,17.40
2018-07-07T23:25:29.235Z,17.40
2018-07-07T23:27:58.106Z,17.40
2018-07-07T23:30:27.038Z,17.30
2018-07-07T23:32:55.910Z,17.30
2018-07-07T23:35:24.794Z,17.30
2018-07-07T23:37:53.800Z,17.30
2018-07-07T23:40:22.878Z,17.20
2018-07-07T23:42:51.854Z,17.20
2018-07-07T23:45:20.723Z,17.10
2018-07-07T23:47:49.760Z,17.10
2018-07-07T23:50:18.646Z,17.00
2018-07-07T23:52:47.536Z,17.00
2018-07-07T23:55:16.962Z,17.00
2018-07-07T23:57:46.359Z,17.00
